Time;durP1;ratioP1;P1;durP2;ratioP2;P2;SDS_P1;SDS_P2;PMS_P1;PMS_P2;Temp;Humidity;BMP_temperature;BMP_pressure;BME280_temperature;BME280_humidity;BME280_pressure;Samples;Min_cycle;Max_cycle;Signal;HPM_P1;HPM_P2
2021/08/20 00:01:41;;;;;;;10.13;4.63;;;15.50;86.20;;;;;;5095210;28;20171;-89
2021/08/20 00:04:07;;;;;;;12.85;4.72;;;15.50;86.50;;;;;;5078410;28;20185;-90
2021/08/20 00:06:36;;;;;;;9.77;4.63;;;15.50;86.70;;;;;;5077075;28;20240;-89
2021/08/20 00:09:02;;;;;;;11.82;5.00;;;15.50;87.20;;;;;;5076992;28;20178;-89
2021/08/20 00:11:28;;;;;;;12.60;5.30;;;15.50;87.30;;;;;;5077900;28;20682;-89
2021/08/20 00:13:53;;;;;;;11.00;5.15;;;15.50;87.30;;;;;;5076704;28;20557;-89
2021/08/20 00:16:19;;;;;;;10.70;6.00;;;15.50;87.50;;;;;;5076668;28;20285;-89
2021/08/20 00:18:45;;;;;;;8.65;5.05;;;15.50;87.30;;;;;;5076726;28;20171;-89
2021/08/20 00:21:11;;;;;;;13.32;6.20;;;15.50;87.20;;;;;;5076650;28;20170;-89
2021/08/20 00:23:36;;;;;;;17.23;8.50;;;15.50;87.40;;;;;;5076660;28;20601;-89
2021/08/20 00:26:03;;;;;;;14.73;6.45;;;15.40;87.80;;;;;;5076533;28;20199;-89
2021/08/20 00:28:29;;;;;;;14.20;6.63;;;15.30;87.70;;;;;;5076671;28;20265;-89
2021/08/20 00:30:55;;;;;;;13.82;6.88;;;15.30;87.40;;;;;;5094611;28;20198;-89
2021/08/20 00:33:21;;;;;;;16.00;6.90;;;15.30;87.20;;;;;;5076010;28;20186;-89
2021/08/20 00:35:46;;;;;;;11.37;6.17;;;15.30;87.30;;;;;;5076644;28;20202;-89
2021/08/20 00:38:12;;;;;;;18.85;6.80;;;15.20;87.40;;;;;;5077010;28;20532;-89
2021/08/20 00:40:42;;;;;;;16.05;6.18;;;15.20;87.50;;;;;;5076416;28;20170;-89
2021/08/20 00:43:07;;;;;;;14.47;6.50;;;15.20;87.70;;;;;;5076371;28;20170;-89
2021/08/20 00:45:35;;;;;;;12.38;6.55;;;15.20;87.90;;;;;;5076161;28;20646;-89
2021/08/20 00:48:01;;;;;;;13.38;5.97;;;15.20;88.00;;;;;;5076406;28;20174;-89
2021/08/20 00:50:27;;;;;;;13.45;6.30;;;15.20;87.70;;;;;;5076152;28;20227;-89
2021/08/20 00:52:53;;;;;;;10.90;5.65;;;15.20;87.60;;;;;;5076285;28;20188;-89
2021/08/20 00:55:20;;;;;;;12.15;6.30;;;15.20;87.70;;;;;;5076012;28;20202;-89
2021/08/20 00:57:48;;;;;;;14.05;6.65;;;15.20;87.70;;;;;;5076935;28;20197;-89
2021/08/20 01:00:18;;;;;;;10.30;5.45;;;15.20;87.60;;;;;;5075997;28;20582;-89
2021/08/20 01:02:44;;;;;;;10.55;5.78;;;15.20;87.80;;;;;;5094087;28;20162;-89
2021/08/20 01:05:11;;;;;;;15.25;6.80;;;15.20;87.90;;;;;;5076186;28;20182;-89
2021/08/20 01:07:38;;;;;;;17.25;7.55;;;15.20;88.00;;;;;;5075893;28;20214;-89
2021/08/20 01:10:05;;;;;;;15.38;6.55;;;15.20;88.10;;;;;;5076282;28;20182;-89
2021/08/20 01:12:31;;;;;;;9.38;5.63;;;15.20;87.90;;;;;;5075962;28;20542;-89
2021/08/20 01:14:57;;;;;;;10.70;6.07;;;15.20;87.70;;;;;;5076235;28;20201;-89
2021/08/20 01:17:23;;;;;;;13.40;5.90;;;15.20;87.80;;;;;;5075845;28;20190;-89
2021/08/20 01:19:48;;;;;;;11.95;6.65;;;15.20;87.80;;;;;;5075918;28;20269;-89
2021/08/20 01:22:14;;;;;;;13.50;6.40;;;15.20;88.10;;;;;;5076333;28;20166;-89
2021/08/20 01:24:44;;;;;;;13.52;6.55;;;15.20;88.30;;;;;;5075950;28;20182;-89
2021/08/20 01:27:10;;;;;;;9.85;6.20;;;15.20;88.40;;;;;;5075684;28;20210;-89
2021/08/20 01:29:36;;;;;;;9.80;5.95;;;15.20;88.60;;;;;;5075568;28;20175;-89
2021/08/20 01:32:02;;;;;;;11.82;5.38;;;15.20;88.60;;;;;;5075650;28;20550;-89
2021/08/20 01:34:27;;;;;;;11.93;5.97;;;15.20;88.60;;;;;;5075436;28;20244;-89
2021/08/20 01:36:53;;;;;;;12.93;6.22;;;15.10;88.90;;;;;;5075479;28;20248;-89
2021/08/20 01:39:19;;;;;;;14.90;6.60;;;15.20;88.90;;;;;;5093640;28;20192;-89
2021/08/20 01:41:44;;;;;;;12.10;6.40;;;15.10;89.10;;;;;;5075480;28;20174;-89
2021/08/20 01:44:10;;;;;;;14.55;6.25;;;15.10;89.30;;;;;;5075889;28;20174;-89
2021/08/20 01:46:36;;;;;;;12.65;6.15;;;15.00;89.50;;;;;;5096215;28;20186;-89
2021/08/20 01:49:03;;;;;;;13.55;6.00;;;15.00;89.60;;;;;;5079851;28;20182;-89
2021/08/20 01:51:32;;;;;;;13.40;5.80;;;14.90;89.50;;;;;;5097812;28;20533;-89
2021/08/20 01:54:02;;;;;;;17.83;5.80;;;15.00;89.50;;;;;;5079801;28;20273;-89
2021/08/20 01:56:33;;;;;;;18.43;6.37;;;14.90;89.30;;;;;;5079482;28;20689;-89
2021/08/20 01:58:59;;;;;;;10.87;6.50;;;14.90;89.20;;;;;;5097940;28;20618;-89
2021/08/20 02:01:26;;;;;;;7.88;5.88;;;15.00;89.20;;;;;;5097572;28;20163;-89
2021/08/20 02:03:52;;;;;;;12.00;6.17;;;15.00;89.40;;;;;;5079557;28;20174;-89
2021/08/20 02:06:18;;;;;;;12.02;6.45;;;15.00;89.80;;;;;;5079122;28;20748;-89
2021/08/20 02:08:44;;;;;;;18.67;6.90;;;15.00;89.90;;;;;;5079642;28;20155;-89
2021/08/20 02:11:10;;;;;;;15.57;7.47;;;14.90;90.00;;;;;;5097638;28;20231;-89
2021/08/20 02:13:36;;;;;;;18.95;6.88;;;14.90;90.10;;;;;;5079494;28;20522;-89
2021/08/20 02:16:01;;;;;;;12.03;6.33;;;14.90;90.00;;;;;;5079002;28;20630;-89
2021/08/20 02:18:27;;;;;;;16.77;7.30;;;14.90;90.00;;;;;;5097371;28;20170;-89
2021/08/20 02:20:53;;;;;;;14.40;7.35;;;14.90;90.00;;;;;;5079205;28;20249;-89
2021/08/20 02:23:19;;;;;;;16.42;8.38;;;14.90;90.10;;;;;;5079331;28;20174;-89
2021/08/20 02:25:45;;;;;;;11.98;7.45;;;15.00;90.00;;;;;;5078955;28;20273;-89
2021/08/20 02:28:10;;;;;;;16.73;7.63;;;14.80;90.00;;;;;;5078922;28;20175;-89
2021/08/20 02:30:36;;;;;;;13.27;8.00;;;14.80;90.20;;;;;;5096953;28;20177;-89
2021/08/20 02:33:02;;;;;;;16.17;9.27;;;14.70;90.20;;;;;;5079091;28;20175;-89
2021/08/20 02:35:27;;;;;;;14.40;8.70;;;14.70;90.40;;;;;;5078606;28;20229;-89
2021/08/20 02:37:55;;;;;;;13.40;7.67;;;14.60;90.60;;;;;;5078769;28;20175;-88
2021/08/20 02:40:21;;;;;;;18.47;9.37;;;14.70;90.60;;;;;;5078710;28;20171;-89
2021/08/20 02:42:47;;;;;;;16.80;9.00;;;14.70;90.50;;;;;;5078604;28;20178;-89
2021/08/20 02:45:13;;;;;;;18.50;8.60;;;14.70;90.50;;;;;;5078887;28;20182;-89
2021/08/20 02:47:40;;;;;;;16.23;8.67;;;14.70;90.50;;;;;;5078385;28;20209;-88
2021/08/20 02:50:06;;;;;;;16.40;8.37;;;14.70;90.50;;;;;;5079122;28;20683;-88
2021/08/20 02:52:32;;;;;;;13.77;7.90;;;14.80;90.40;;;;;;5078764;28;20178;-89
2021/08/20 02:54:58;;;;;;;12.17;7.57;;;14.80;90.30;;;;;;5078295;28;20202;-89
2021/08/20 02:57:27;;;;;;;13.07;7.87;;;14.80;90.30;;;;;;5077869;28;20186;-89
2021/08/20 02:59:54;;;;;;;14.63;7.23;;;14.90;90.40;;;;;;5078704;28;20167;-89
2021/08/20 03:02:20;;;;;;;16.43;7.50;;;14.90;90.60;;;;;;5078665;28;20167;-89
2021/08/20 03:04:46;;;;;;;17.20;7.70;;;14.80;90.70;;;;;;5096321;28;20178;-89
2021/08/20 03:07:11;;;;;;;10.43;6.43;;;14.70;90.90;;;;;;5078035;28;20297;-89
2021/08/20 03:09:37;;;;;;;11.50;7.17;;;14.60;90.70;;;;;;5078008;28;20178;-89
2021/08/20 03:12:03;;;;;;;15.63;7.23;;;14.60;90.80;;;;;;5096155;28;20178;-89
2021/08/20 03:14:29;;;;;;;15.80;7.43;;;14.60;90.90;;;;;;5077928;28;20203;-89
2021/08/20 03:16:55;;;;;;;16.90;7.20;;;14.50;91.20;;;;;;5077941;28;20237;-89
2021/08/20 03:19:20;;;;;;;15.03;7.13;;;14.60;91.20;;;;;;5078167;28;20171;-89
2021/08/20 03:21:46;;;;;;;21.03;7.73;;;14.60;91.20;;;;;;5078121;28;20177;-89
2021/08/20 03:24:12;;;;;;;15.83;7.00;;;14.60;91.00;;;;;;5077754;28;20175;-89
2021/08/20 03:26:37;;;;;;;18.20;6.90;;;14.70;91.00;;;;;;5077725;28;20225;-89
2021/08/20 03:29:03;;;;;;;11.43;6.78;;;14.70;90.90;;;;;;5077720;28;20175;-89
2021/08/20 03:31:29;;;;;;;14.40;7.20;;;14.70;90.90;;;;;;5077726;28;20353;-89
2021/08/20 03:33:55;;;;;;;13.07;7.27;;;14.70;90.80;;;;;;5077797;28;20708;-89
2021/08/20 03:36:23;;;;;;;13.43;7.37;;;14.70;91.00;;;;;;5077499;28;20277;-89
2021/08/20 03:38:52;;;;;;;15.43;8.00;;;14.70;91.00;;;;;;5095682;28;20232;-89
2021/08/20 03:41:19;;;;;;;12.63;7.57;;;14.70;90.90;;;;;;5077787;28;20199;-89
2021/08/20 03:43:45;;;;;;;15.20;7.90;;;14.60;91.10;;;;;;5077473;28;20192;-89
2021/08/20 03:46:15;;;;;;;13.90;7.15;;;14.60;91.20;;;;;;5077270;28;20198;-89
2021/08/20 03:48:44;;;;;;;16.10;8.90;;;14.60;91.30;;;;;;5078220;28;20178;-89
2021/08/20 03:51:13;;;;;;;16.15;8.85;;;14.60;91.30;;;;;;5077591;28;20179;-89
2021/08/20 03:53:39;;;;;;;20.67;8.90;;;14.60;91.30;;;;;;5077235;28;20178;-89
2021/08/20 03:56:06;;;;;;;14.45;7.90;;;14.60;91.40;;;;;;5077780;28;20216;-89
2021/08/20 03:58:32;;;;;;;13.73;8.43;;;14.60;91.40;;;;;;5077160;28;20236;-89
2021/08/20 04:00:58;;;;;;;13.93;9.00;;;14.60;91.50;;;;;;5077113;28;20175;-89
2021/08/20 04:03:24;;;;;;;18.47;9.30;;;14.50;91.70;;;;;;5077078;28;20178;-89
2021/08/20 04:05:50;;;;;;;20.67;10.43;;;14.50;91.80;;;;;;5077231;28;20194;-89
2021/08/20 04:08:17;;;;;;;19.60;10.60;;;14.40;91.90;;;;;;5076202;28;20171;-89
2021/08/20 04:10:44;;;;;;;23.50;10.20;;;14.50;92.00;;;;;;5076866;28;20175;-89
2021/08/20 04:13:10;;;;;;;17.87;10.27;;;14.50;92.00;;;;;;5077053;28;20210;-89
2021/08/20 04:15:37;;;;;;;19.60;9.80;;;14.50;92.00;;;;;;5094683;28;20205;-89
2021/08/20 04:18:03;;;;;;;19.80;10.03;;;14.50;92.10;;;;;;5076685;28;20205;-89
2021/08/20 04:20:29;;;;;;;21.83;11.50;;;14.60;92.10;;;;;;5076654;28;20171;-89
2021/08/20 04:22:55;;;;;;;23.80;11.10;;;14.60;92.00;;;;;;5077259;28;20545;-89
2021/08/20 04:25:22;;;;;;;26.63;12.10;;;14.50;92.10;;;;;;5077623;28;20270;-89
2021/08/20 04:27:48;;;;;;;22.67;13.13;;;14.50;92.20;;;;;;5076427;28;20250;-89
2021/08/20 04:30:13;;;;;;;27.50;13.50;;;14.50;92.30;;;;;;5076743;28;20174;-89
2021/08/20 04:32:39;;;;;;;27.27;13.27;;;14.50;92.40;;;;;;5076493;28;20185;-89
2021/08/20 04:35:06;;;;;;;25.00;13.83;;;14.50;92.40;;;;;;5076682;28;20198;-89
2021/08/20 04:37:31;;;;;;;27.97;14.70;;;14.50;92.50;;;;;;5076256;28;20198;-89
2021/08/20 04:39:57;;;;;;;28.03;15.33;;;14.50;92.60;;;;;;5076226;28;20175;-89
2021/08/20 04:42:23;;;;;;;32.37;15.50;;;14.50;92.80;;;;;;5094648;28;20170;-89
2021/08/20 04:44:48;;;;;;;32.37;16.70;;;14.50;92.90;;;;;;5094235;28;20174;-89
2021/08/20 04:47:14;;;;;;;34.23;15.90;;;14.50;92.90;;;;;;5076528;28;20191;-89
2021/08/20 04:49:40;;;;;;;31.87;17.40;;;14.50;93.00;;;;;;5094464;28;20189;-89
2021/08/20 04:52:05;;;;;;;32.30;16.17;;;14.50;93.00;;;;;;5076892;28;20185;-89
2021/08/20 04:54:32;;;;;;;32.60;15.70;;;14.50;93.00;;;;;;5093979;28;20268;-89
2021/08/20 04:56:58;;;;;;;29.20;14.97;;;14.50;93.00;;;;;;5075926;28;20199;-89
2021/08/20 04:59:24;;;;;;;29.87;13.93;;;14.50;92.90;;;;;;5076229;28;20178;-89
2021/08/20 05:01:49;;;;;;;26.90;13.93;;;14.50;92.90;;;;;;5075902;28;20559;-89
2021/08/20 05:04:15;;;;;;;22.70;14.27;;;14.50;92.80;;;;;;5076288;28;20210;-89
2021/08/20 05:06:41;;;;;;;25.13;13.40;;;14.60;92.80;;;;;;5075671;28;20214;-89
2021/08/20 05:09:08;;;;;;;28.57;13.87;;;14.50;92.80;;;;;;5075795;28;20221;-89
2021/08/20 05:11:37;;;;;;;27.87;14.00;;;14.50;92.70;;;;;;5093883;28;20174;-89
2021/08/20 05:14:02;;;;;;;27.30;13.50;;;14.50;92.80;;;;;;5076065;28;20186;-89
2021/08/20 05:16:28;;;;;;;22.07;11.30;;;14.40;92.80;;;;;;5075714;28;20259;-89
2021/08/20 05:18:55;;;;;;;19.07;11.33;;;14.50;92.70;;;;;;5093783;28;20171;-89
2021/08/20 05:21:22;;;;;;;21.47;12.23;;;14.60;92.60;;;;;;5075465;28;20174;-89
2021/08/20 05:23:48;;;;;;;16.83;10.90;;;14.50;92.50;;;;;;5076228;28;20553;-89
2021/08/20 05:26:13;;;;;;;15.83;10.43;;;14.60;92.40;;;;;;5093617;28;20205;-89
2021/08/20 05:28:39;;;;;;;19.60;11.47;;;14.70;92.30;;;;;;5075601;28;20190;-89
2021/08/20 05:31:04;;;;;;;18.60;11.03;;;14.60;92.10;;;;;;5076156;28;20269;-89
2021/08/20 05:33:30;;;;;;;17.67;10.53;;;14.60;92.10;;;;;;5093553;28;20257;-89
2021/08/20 05:35:56;;;;;;;16.90;10.80;;;14.60;92.00;;;;;;5075294;28;20245;-89
2021/08/20 05:38:22;;;;;;;19.97;10.57;;;14.60;92.00;;;;;;5075496;28;20167;-89
2021/08/20 05:40:48;;;;;;;15.47;10.17;;;14.60;92.10;;;;;;5076623;28;20175;-89
2021/08/20 05:43:14;;;;;;;18.80;9.83;;;14.60;92.10;;;;;;5093708;28;20179;-89
2021/08/20 05:45:39;;;;;;;14.63;9.90;;;14.70;92.20;;;;;;5075427;28;20207;-89
2021/08/20 05:48:08;;;;;;;13.32;8.63;;;14.70;92.10;;;;;;5075373;28;20683;-89
2021/08/20 05:50:35;;;;;;;15.10;8.60;;;14.70;92.10;;;;;;5075423;28;20209;-89
2021/08/20 05:53:01;;;;;;;16.23;9.00;;;14.60;91.90;;;;;;5075375;28;20645;-89
2021/08/20 05:55:30;;;;;;;13.97;9.40;;;14.70;92.10;;;;;;5075692;28;20286;-89
2021/08/20 05:57:56;;;;;;;11.93;9.23;;;14.70;92.00;;;;;;5093729;28;20167;-89
2021/08/20 06:00:22;;;;;;;14.43;8.73;;;14.70;92.00;;;;;;5075379;28;20261;-89
2021/08/20 06:02:48;;;;;;;13.10;9.50;;;14.70;91.90;;;;;;5093537;28;20710;-89
2021/08/20 06:05:13;;;;;;;14.60;9.83;;;14.80;91.90;;;;;;5075255;28;20548;-89
2021/08/20 06:07:39;;;;;;;14.17;9.47;;;14.80;91.80;;;;;;5075114;28;20220;-89
2021/08/20 06:10:07;;;;;;;18.00;10.17;;;14.80;91.80;;;;;;5093245;28;20171;-89
2021/08/20 06:12:32;;;;;;;16.93;10.60;;;14.80;92.00;;;;;;5075205;28;20178;-89
2021/08/20 06:14:58;;;;;;;19.00;10.83;;;14.90;92.00;;;;;;5075187;28;20597;-89
2021/08/20 06:17:24;;;;;;;14.43;9.60;;;14.90;91.90;;;;;;5093143;28;20565;-89
2021/08/20 06:19:49;;;;;;;14.87;9.90;;;14.90;91.70;;;;;;5075653;28;20183;-89
2021/08/20 06:22:15;;;;;;;15.60;9.97;;;14.90;91.70;;;;;;5075613;28;20179;-89
2021/08/20 06:24:41;;;;;;;16.00;10.03;;;15.00;91.80;;;;;;5075060;28;20642;-89
2021/08/20 06:27:06;;;;;;;13.33;8.90;;;15.10;91.80;;;;;;5075121;28;20681;-89
2021/08/20 06:29:32;;;;;;;14.03;8.70;;;15.10;91.70;;;;;;5093371;28;20558;-89
2021/08/20 06:31:58;;;;;;;13.97;9.73;;;15.00;91.50;;;;;;5076560;28;20183;-89
2021/08/20 06:34:24;;;;;;;14.63;10.00;;;15.00;91.50;;;;;;5079279;28;20206;-89
2021/08/20 06:36:50;;;;;;;16.00;9.57;;;15.00;91.60;;;;;;5078643;28;20572;-89
2021/08/20 06:39:15;;;;;;;13.40;9.10;;;14.90;91.40;;;;;;5097011;28;20193;-89
2021/08/20 06:41:41;;;;;;;18.10;10.23;;;15.00;91.60;;;;;;5078841;28;20272;-89
2021/08/20 06:44:07;;;;;;;14.07;9.70;;;14.90;91.70;;;;;;5096654;28;20178;-88
2021/08/20 06:46:32;;;;;;;15.80;9.87;;;14.90;91.70;;;;;;5096897;28;20218;-89
2021/08/20 06:48:58;;;;;;;17.13;10.53;;;14.90;91.80;;;;;;5096608;28;20535;-89
2021/08/20 06:51:24;;;;;;;17.55;10.65;;;15.00;92.00;;;;;;5078411;28;20589;-89
2021/08/20 06:53:49;;;;;;;12.75;9.77;;;15.00;92.00;;;;;;5078712;28;20181;-89
2021/08/20 06:56:15;;;;;;;18.58;10.65;;;15.10;91.90;;;;;;5078115;28;20579;-89
2021/08/20 06:58:40;;;;;;;17.73;10.93;;;15.20;91.80;;;;;;5078381;28;20185;-89
2021/08/20 07:01:07;;;;;;;15.90;10.38;;;15.10;91.90;;;;;;5096590;28;20170;-89
2021/08/20 07:03:33;;;;;;;18.23;11.95;;;15.20;91.80;;;;;;5078248;28;20175;-89
2021/08/20 07:05:58;;;;;;;16.88;11.25;;;15.30;91.80;;;;;;5096349;28;20208;-89
2021/08/20 07:08:24;;;;;;;14.80;10.48;;;15.30;91.70;;;;;;5078514;28;20179;-89
2021/08/20 07:10:49;;;;;;;14.93;10.95;;;15.40;91.80;;;;;;5078218;28;20178;-89
2021/08/20 07:13:15;;;;;;;17.88;11.52;;;15.50;91.60;;;;;;5077986;28;20228;-89
2021/08/20 07:15:41;;;;;;;13.23;10.30;;;15.50;91.60;;;;;;5077817;28;20556;-89
2021/08/20 07:18:07;;;;;;;14.20;9.98;;;15.50;91.60;;;;;;5078071;28;20174;-89
2021/08/20 07:20:32;;;;;;;14.27;9.45;;;15.50;91.40;;;;;;5078196;28;20175;-89
2021/08/20 07:22:58;;;;;;;12.85;9.63;;;15.60;91.30;;;;;;5077857;28;20178;-89
2021/08/20 07:25:24;;;;;;;11.18;8.77;;;15.50;91.00;;;;;;5077678;28;20285;-89
2021/08/20 07:27:50;;;;;;;10.55;7.90;;;15.50;91.00;;;;;;5077739;28;20202;-89
2021/08/20 07:30:15;;;;;;;10.98;8.02;;;15.50;90.80;;;;;;5095834;28;20174;-89
2021/08/20 07:32:41;;;;;;;11.82;7.72;;;15.50;90.90;;;;;;5078205;28;20549;-89
2021/08/20 07:35:07;;;;;;;9.20;7.57;;;15.50;90.90;;;;;;5077608;28;20205;-89
2021/08/20 07:37:32;;;;;;;10.07;7.40;;;15.50;90.90;;;;;;5077922;28;20190;-89
2021/08/20 07:39:58;;;;;;;9.65;7.18;;;15.60;91.00;;;;;;5077806;28;20265;-89
2021/08/20 07:42:24;;;;;;;10.02;7.18;;;15.60;90.80;;;;;;5095378;28;20170;-89
2021/08/20 07:44:49;;;;;;;15.43;7.82;;;15.70;90.90;;;;;;5076674;28;20231;-89
2021/08/20 07:47:15;;;;;;;12.07;7.40;;;15.70;90.80;;;;;;5077659;28;20199;-89
2021/08/20 07:49:41;;;;;;;9.93;7.18;;;15.70;90.70;;;;;;5077472;28;20170;-89
2021/08/20 07:52:06;;;;;;;11.88;8.48;;;15.80;90.70;;;;;;5095346;28;20545;-89
2021/08/20 07:54:32;;;;;;;8.70;7.18;;;15.80;90.20;;;;;;5078403;28;20194;-89
2021/08/20 07:56:58;;;;;;;11.65;7.82;;;15.90;90.20;;;;;;5095540;28;20186;-89
2021/08/20 07:59:23;;;;;;;11.63;8.65;;;15.90;90.40;;;;;;5077483;28;20178;-89
2021/08/20 08:01:49;;;;;;;14.65;8.25;;;16.00;90.40;;;;;;5077202;28;20363;-89
2021/08/20 08:04:15;;;;;;;16.60;8.82;;;16.10;90.10;;;;;;5077188;28;20665;-89
2021/08/20 08:06:40;;;;;;;13.45;9.73;;;16.20;89.70;;;;;;5077279;28;20206;-89
2021/08/20 08:09:06;;;;;;;12.43;9.95;;;16.20;89.90;;;;;;5095202;28;20167;-89
2021/08/20 08:11:32;;;;;;;16.10;9.52;;;16.20;89.50;;;;;;5095318;28;20167;-89
2021/08/20 08:14:08;;;;;;;12.23;9.73;;;16.30;89.40;;;;;;5076957;28;20177;-89
2021/08/20 08:16:36;;;;;;;13.82;10.60;;;16.20;89.40;;;;;;5077120;28;20246;-89
2021/08/20 08:19:04;;;;;;;15.43;9.95;;;16.30;89.00;;;;;;5076758;28;20171;-89
2021/08/20 08:21:30;;;;;;;15.23;10.77;;;16.30;89.00;;;;;;5086041;22;20371;-89
2021/08/20 08:23:56;;;;;;;14.70;10.95;;;16.30;89.40;;;;;;5074306;28;20167;-89
2021/08/20 08:26:23;;;;;;;13.85;11.25;;;16.40;88.90;;;;;;5074843;28;20167;-89
2021/08/20 08:28:49;;;;;;;15.63;11.75;;;16.40;89.10;;;;;;5073041;28;20179;-89
2021/08/20 08:31:15;;;;;;;19.02;12.15;;;16.30;88.90;;;;;;5074161;28;20188;-89
2021/08/20 08:33:41;;;;;;;17.77;12.43;;;16.20;89.40;;;;;;5056226;28;20179;-88
2021/08/20 08:36:06;;;;;;;16.77;12.25;;;16.20;89.80;;;;;;5074032;28;20325;-89
2021/08/20 08:38:32;;;;;;;18.00;12.38;;;16.20;90.00;;;;;;5074059;28;20227;-88
2021/08/20 08:40:58;;;;;;;17.40;12.32;;;16.20;90.20;;;;;;5056388;28;20203;-88
2021/08/20 08:43:23;;;;;;;17.95;13.45;;;16.10;90.10;;;;;;5073940;28;20202;-89
2021/08/20 08:45:49;;;;;;;18.90;13.50;;;16.10;90.30;;;;;;5056242;28;20205;-88
2021/08/20 08:48:15;;;;;;;19.88;13.73;;;16.10;90.60;;;;;;5073890;28;20167;-88
2021/08/20 08:50:46;;;;;;;24.25;15.48;;;16.10;90.70;;;;;;5073749;28;20187;-88
2021/08/20 08:53:12;;;;;;;21.77;14.93;;;16.00;90.90;;;;;;5055758;28;20647;-89
2021/08/20 08:55:38;;;;;;;19.60;14.73;;;16.00;91.40;;;;;;5055462;28;20286;-89
2021/08/20 08:58:07;;;;;;;24.92;15.65;;;16.00;91.50;;;;;;5074002;28;20171;-89
2021/08/20 09:00:34;;;;;;;28.05;16.33;;;16.00;91.50;;;;;;5055656;28;20678;-89
2021/08/20 09:03:00;;;;;;;27.80;18.33;;;15.90;91.60;;;;;;5055735;28;20171;-87
2021/08/20 09:05:26;;;;;;;22.08;16.73;;;16.00;91.80;;;;;;5055905;28;20185;-85
2021/08/20 09:07:54;;;;;;;23.00;16.67;;;16.00;92.00;;;;;;5073579;28;20207;-86
2021/08/20 09:10:22;;;;;;;26.08;17.67;;;16.20;92.10;;;;;;5055533;28;20230;-86
2021/08/20 09:12:54;;;;;;;22.13;17.08;;;16.30;92.00;;;;;;5055509;28;20738;-86
2021/08/20 09:15:23;;;;;;;24.48;17.83;;;16.30;91.80;;;;;;5073664;28;20638;-87
2021/08/20 09:17:53;;;;;;;23.63;16.30;;;16.30;91.70;;;;;;5055549;28;20671;-87
2021/08/20 09:20:30;;;;;;;22.42;16.02;;;16.30;91.70;;;;;;5055320;28;20297;-86
2021/08/20 09:22:58;;;;;;;21.27;15.82;;;16.30;91.50;;;;;;5055434;28;20160;-86
2021/08/20 09:25:40;;;;;;;21.20;15.68;;;16.30;91.50;;;;;;5073319;28;20175;-87
2021/08/20 09:28:30;;;;;;;20.02;15.05;;;16.30;91.50;;;;;;5055399;28;20225;-86
2021/08/20 09:30:55;;;;;;;19.92;15.63;;;16.40;91.60;;;;;;5047729;28;20204;-86
2021/08/20 09:33:29;;;;;;;17.88;15.38;;;16.50;91.40;;;;;;5073549;28;20167;-86
2021/08/20 09:36:07;;;;;;;20.15;15.75;;;16.50;91.30;;;;;;5055142;28;20245;-86
2021/08/20 09:38:39;;;;;;;21.40;15.90;;;16.50;91.40;;;;;;5055610;28;20159;-86
2021/08/20 09:41:12;;;;;;;25.40;20.00;;;16.60;91.50;;;;;;5055120;28;20191;-86
2021/08/20 09:43:40;;;;;;;29.15;21.05;;;16.70;91.70;;;;;;5055305;28;20168;-86
2021/08/20 09:46:11;;;;;;;27.58;20.92;;;17.10;92.60;;;;;;5055061;28;20187;-86
2021/08/20 09:48:47;;;;;;;28.08;21.52;;;17.20;92.30;;;;;;5055093;28;20715;-86
2021/08/20 09:51:31;;;;;;;31.73;20.67;;;17.30;92.20;;;;;;5072984;28;20197;-86
2021/08/20 09:54:07;;;;;;;26.13;20.50;;;17.20;90.70;;;;;;5073004;28;20167;-86
2021/08/20 09:56:34;;;;;;;27.15;21.10;;;17.50;91.40;;;;;;5055112;28;20171;-86
2021/08/20 09:59:02;;;;;;;25.20;20.48;;;17.50;91.00;;;;;;5055004;28;20651;-86
2021/08/20 10:01:29;;;;;;;22.60;18.95;;;17.50;90.90;;;;;;5054927;28;20286;-86
2021/08/20 10:03:59;;;;;;;22.83;20.42;;;17.40;89.90;;;;;;5055044;28;20179;-86
2021/08/20 10:06:33;;;;;;;27.27;19.50;;;17.40;90.20;;;;;;5055543;28;20178;-86
2021/08/20 10:09:03;;;;;;;19.65;16.83;;;17.40;89.90;;;;;;5058963;28;20177;-86
2021/08/20 10:11:29;;;;;;;25.48;19.90;;;17.50;88.60;;;;;;5058872;28;20198;-86
2021/08/20 10:14:00;;;;;;;20.25;17.90;;;18.00;90.30;;;;;;5058906;28;20231;-86
2021/08/20 10:16:27;;;;;;;23.33;17.58;;;18.00;88.30;;;;;;5076773;28;20269;-86
2021/08/20 10:18:53;;;;;;;21.05;18.73;;;18.10;88.10;;;;;;5058845;28;20179;-86
2021/08/20 10:21:19;;;;;;;19.35;16.73;;;18.30;88.50;;;;;;5058530;28;20694;-86
2021/08/20 10:23:46;;;;;;;22.95;16.55;;;18.50;87.70;;;;;;5058620;28;20309;-86
2021/08/20 10:26:12;;;;;;;16.27;14.55;;;18.80;87.60;;;;;;5059027;28;20309;-86
2021/08/20 10:28:39;;;;;;;18.83;15.13;;;18.70;86.20;;;;;;5076581;28;20584;-86
2021/08/20 10:31:07;;;;;;;14.07;12.57;;;18.60;85.90;;;;;;5076581;28;20195;-86
2021/08/20 10:33:35;;;;;;;15.00;11.38;;;18.40;85.80;;;;;;5058590;28;20175;-86
2021/08/20 10:36:01;;;;;;;14.73;13.05;;;18.00;85.90;;;;;;5076349;28;20355;-86
2021/08/20 10:38:47;;;;;;;16.55;12.90;;;18.10;87.20;;;;;;5058306;28;20184;-86
2021/08/20 10:41:14;;;;;;;18.48;14.27;;;18.00;86.70;;;;;;5076233;28;20275;-86
2021/08/20 10:43:58;;;;;;;15.63;12.80;;;18.10;86.00;;;;;;5058599;28;20167;-86
2021/08/20 10:46:33;;;;;;;14.40;11.70;;;18.40;85.50;;;;;;5076234;28;20163;-86
2021/08/20 10:51:56;;;;;;;12.88;11.30;;;18.60;83.90;;;;;;5076673;28;20199;-85
2021/08/20 10:54:31;;;;;;;20.55;14.93;;;18.60;84.00;;;;;;5058081;28;20171;-85
2021/08/20 10:56:58;;;;;;;16.48;12.05;;;19.00;84.10;;;;;;5058097;28;20173;-85
2021/08/20 10:59:46;;;;;;;14.77;8.85;;;19.00;83.50;;;;;;5058030;28;20279;-85
2021/08/20 11:02:24;;;;;;;10.65;7.15;;;19.00;83.40;;;;;;5076092;28;20192;-87
2021/08/20 11:05:06;;;;;;;8.90;6.15;;;18.80;83.10;;;;;;5058299;28;20175;-87
2021/08/20 11:07:35;;;;;;;7.80;5.18;;;18.90;83.10;;;;;;5075854;28;20206;-87
2021/08/20 11:10:09;;;;;;;9.35;5.07;;;19.00;81.10;;;;;;5058102;28;20547;-86
2021/08/20 11:12:51;;;;;;;9.82;4.88;;;19.10;81.70;;;;;;5076097;28;20198;-86
2021/08/20 11:15:25;;;;;;;7.05;4.38;;;19.10;82.30;;;;;;5075558;28;20195;-86
2021/08/20 11:17:53;;;;;;;7.13;4.10;;;19.20;81.70;;;;;;5057402;28;20170;-86
2021/08/20 11:20:23;;;;;;;4.97;3.67;;;19.00;81.00;;;;;;5057574;28;20211;-86
2021/08/20 11:23:08;;;;;;;8.02;3.80;;;18.80;80.40;;;;;;5075894;28;20155;-86
2021/08/20 11:25:42;;;;;;;5.30;4.32;;;18.70;81.90;;;;;;5075594;28;20175;-86
2021/08/20 11:28:24;;;;;;;5.82;3.90;;;18.70;82.30;;;;;;5057630;28;20171;-86
2021/08/20 11:30:56;;;;;;;5.47;4.60;;;18.60;82.30;;;;;;5075328;28;20187;-86
2021/08/20 11:33:27;;;;;;;6.60;4.80;;;18.50;83.10;;;;;;5057740;28;20179;-86
2021/08/20 11:36:02;;;;;;;7.50;5.75;;;18.20;83.60;;;;;;5057310;28;20191;-86
2021/08/20 11:38:40;;;;;;;8.02;6.10;;;17.90;85.50;;;;;;5057394;28;20239;-86
2021/08/20 11:41:14;;;;;;;9.07;6.22;;;17.90;86.30;;;;;;5057338;28;20191;-86
2021/08/20 11:43:51;;;;;;;6.78;5.82;;;18.00;86.80;;;;;;5075236;28;20681;-86
2021/08/20 11:46:17;;;;;;;6.60;5.80;;;18.20;86.60;;;;;;5057254;28;20220;-86
2021/08/20 11:48:48;;;;;;;7.68;5.53;;;18.10;85.70;;;;;;5075089;28;20569;-86
2021/08/20 11:51:22;;;;;;;7.10;4.97;;;18.00;85.70;;;;;;5074877;28;20192;-86
2021/08/20 11:53:48;;;;;;;7.88;5.45;;;18.10;86.30;;;;;;5074966;28;20205;-86
2021/08/20 11:56:15;;;;;;;8.93;6.47;;;18.20;86.30;;;;;;5056957;28;20199;-86
2021/08/20 11:58:42;;;;;;;6.43;4.95;;;18.50;85.80;;;;;;5056898;28;20241;-86
2021/08/20 12:01:22;;;;;;;6.38;4.68;;;18.90;83.20;;;;;;5056877;28;20192;-86
2021/08/20 12:03:54;;;;;;;6.80;4.90;;;19.10;84.30;;;;;;5074855;28;20151;-86
2021/08/20 12:06:20;;;;;;;7.75;4.90;;;19.30;83.40;;;;;;5056879;28;20277;-86
2021/08/20 12:08:47;;;;;;;7.63;4.72;;;19.50;82.40;;;;;;5056846;28;20661;-86
2021/08/20 12:11:13;;;;;;;9.38;5.18;;;19.30;83.00;;;;;;5056614;28;20199;-86
2021/08/20 12:13:48;;;;;;;7.53;3.92;;;18.90;83.50;;;;;;5074579;28;20249;-86
2021/08/20 12:16:34;;;;;;;4.78;4.13;;;18.70;82.90;;;;;;5056548;28;20629;-86
2021/08/20 12:19:21;;;;;;;5.03;3.88;;;18.60;84.20;;;;;;5073995;28;20183;-86
2021/08/20 12:22:09;;;;;;;4.95;3.78;;;18.80;84.40;;;;;;5056544;28;20298;-86
2021/08/20 12:24:37;;;;;;;5.88;3.85;;;18.80;84.50;;;;;;5055865;28;20274;-86
2021/08/20 12:27:10;;;;;;;5.55;3.50;;;18.90;84.70;;;;;;5074531;28;20205;-86
2021/08/20 12:29:35;;;;;;;5.82;3.45;;;18.80;83.70;;;;;;5073484;28;20193;-86
2021/08/20 12:32:01;;;;;;;4.45;3.28;;;18.70;83.20;;;;;;5074154;28;20753;-86
2021/08/20 12:34:32;;;;;;;4.20;3.40;;;18.40;83.70;;;;;;5074069;28;20171;-87
2021/08/20 12:37:03;;;;;;;4.15;2.83;;;18.40;83.90;;;;;;5074069;28;20536;-86
2021/08/20 12:39:43;;;;;;;8.40;3.85;;;18.60;84.30;;;;;;5074160;28;20568;-86
2021/08/20 12:42:26;;;;;;;5.15;3.00;;;19.00;84.30;;;;;;5056065;28;20693;-87